This is the latest recevied weather packets stored in our database for station/object WB8SKP-WX. If no packets are shown the sender has not sent any weather packets the latest 10 day(s).
| Time | Temp. | Humidity | Pressure | Rain* | Wind** | Luminosity | Snow |
|---|---|---|---|---|---|---|---|
| 1777555598 | 12.22° C | 66% | 998.9 hPa | 0 mm | - | - | - |
| 1777554398 | 11.67° C | 69% | 998.9 hPa | 0 mm | - | - | - |
| 1777553198 | 11.67° C | 72% | 999 hPa | 0 mm | - | - | - |
| 1777551998 | 11.11° C | 75% | 998.7 hPa | 0 mm | - | - | - |
| 1777550798 | 10° C | 79% | 998.4 hPa | 0 mm | - | - | - |
| 1777549598 | 9.44° C | 82% | 998.4 hPa | 0 mm | - | - | - |
| 1777548398 | 9.44° C | 81% | 998.3 hPa | 0 mm | - | - | - |
| 1777547198 | 9.44° C | 81% | 998 hPa | 0 mm | - | - | - |
| 1777545967 | 9.44° C | 79% | 997.9 hPa | 0 mm | - | - | - |
| 1777544767 | 10° C | 80% | 997.6 hPa | 0 mm | - | - | - |
| 1777543537 | 10° C | 80% | 997.7 hPa | 0 mm | - | - | - |
| 1777542337 | 10.56° C | 79% | 997.3 hPa | 0 mm | - | - | - |
| 1777541216 | 10.56° C | 78% | 997.3 hPa | 0 mm | - | - | - |
| 1777541137 | 10.56° C | 78% | 997.3 hPa | 0 mm | - | - | - |
| 1777539907 | 11.11° C | 79% | 997.3 hPa | 0 mm | - | - | - |
| 1777538707 | 11.11° C | 78% | 997.2 hPa | 0 mm | - | - | - |
| 1777537531 | 11.67° C | 78% | 997.1 hPa | 0 mm | - | - | - |
| 1777537478 | 11.67° C | 78% | 997.1 hPa | 0 mm | - | - | - |
| 1777536247 | 12.22° C | 76% | 997 hPa | 0 mm | - | - | - |
| 1777535047 | 12.78° C | 75% | 997.2 hPa | 0 mm | - | - | - |
| 1777533868 | 12.78° C | 74% | 997.3 hPa | 0 mm | - | - | - |
| 1777533817 | 12.78° C | 74% | 997.3 hPa | 0 mm | - | - | - |
| 1777532617 | 13.33° C | 73% | 997.1 hPa | 0 mm | - | - | - |
| 1777531417 | 13.33° C | 73% | 997.2 hPa | 0 mm | - | - | - |
| 1777530217 | 13.89° C | 70% | 997.3 hPa | 0 mm | - | - | - |
* Rain latest hour (hover to see other rain measurements)
** Current wind speed in m/s (hover to see current wind gust speed)